createdAt,value
2018-07-15T00:02:58.000Z,1011.513
2018-07-15T00:12:58.000Z,1011.564
2018-07-15T00:22:58.000Z,1011.525
2018-07-15T00:32:58.000Z,1011.463
2018-07-15T00:42:58.000Z,1011.448
2018-07-15T00:52:58.000Z,1011.507
2018-07-15T01:02:58.000Z,1011.442
2018-07-15T01:12:58.000Z,1011.459
2018-07-15T01:22:58.000Z,1011.379
2018-07-15T01:32:58.000Z,1011.284
2018-07-15T01:42:58.000Z,1011.298
2018-07-15T01:52:58.000Z,1011.271
2018-07-15T02:02:58.000Z,1011.244
2018-07-15T02:22:58.000Z,1011.27
2018-07-15T02:32:58.000Z,1011.247
2018-07-15T02:42:58.000Z,1011.243
2018-07-15T02:52:58.000Z,1011.175
2018-07-15T03:02:58.000Z,1011.168
2018-07-15T03:12:58.000Z,1011.047
2018-07-15T03:22:58.000Z,1010.975
2018-07-15T03:32:58.000Z,1010.953
2018-07-15T03:42:58.000Z,1010.911
2018-07-15T03:52:58.000Z,1010.903
2018-07-15T04:02:58.000Z,1010.918
2018-07-15T04:12:58.000Z,1010.965
2018-07-15T04:22:58.000Z,1010.935
2018-07-15T04:32:58.000Z,1010.867
2018-07-15T04:42:58.000Z,1010.912
2018-07-15T04:52:58.000Z,1010.93
2018-07-15T05:02:58.000Z,1010.878
2018-07-15T05:12:58.000Z,1010.805
2018-07-15T05:22:58.000Z,1010.96
2018-07-15T05:32:58.000Z,1010.985
2018-07-15T05:42:58.000Z,1011.014
2018-07-15T05:52:58.000Z,1011.063
2018-07-15T06:02:58.000Z,1011.116
2018-07-15T06:12:58.000Z,1011.105
2018-07-15T06:22:58.000Z,1011.061
2018-07-15T06:32:59.000Z,1011.031
2018-07-15T06:42:59.000Z,1011.016
2018-07-15T06:52:59.000Z,1010.986
2018-07-15T07:02:59.000Z,1010.926
2018-07-15T07:12:59.000Z,1010.97
2018-07-15T07:22:59.000Z,1010.994
2018-07-15T07:32:59.000Z,1011.06
2018-07-15T07:42:59.000Z,1011.047
2018-07-15T07:52:59.000Z,1011.042
2018-07-15T08:02:59.000Z,1010.971
2018-07-15T08:12:59.000Z,1011.041
2018-07-15T08:22:59.000Z,1010.998
2018-07-15T08:32:59.000Z,1011.008
2018-07-15T08:42:59.000Z,1010.988
2018-07-15T08:52:59.000Z,1010.988
2018-07-15T09:02:59.000Z,1010.932
2018-07-15T09:12:59.000Z,1010.895
2018-07-15T09:22:59.000Z,1010.832
2018-07-15T09:32:59.000Z,1010.744
2018-07-15T09:42:59.000Z,1010.697
2018-07-15T09:52:59.000Z,1010.711
2018-07-15T10:02:59.000Z,1010.67
2018-07-15T10:12:59.000Z,1010.649
2018-07-15T10:22:59.000Z,1010.627
2018-07-15T10:32:59.000Z,1010.527
2018-07-15T10:42:59.000Z,1010.425
2018-07-15T10:52:59.000Z,1010.35
2018-07-15T11:02:59.000Z,1010.21
2018-07-15T11:12:59.000Z,1010.204
2018-07-15T11:32:59.000Z,1010.096
2018-07-15T11:43:00.000Z,1009.945
2018-07-15T11:52:59.000Z,1009.904
2018-07-15T12:02:59.000Z,1009.799
2018-07-15T12:12:59.000Z,1009.682
2018-07-15T12:22:59.000Z,1009.657
2018-07-15T12:32:59.000Z,1009.536
2018-07-15T12:42:59.000Z,1009.436
2018-07-15T12:52:59.000Z,1009.304
2018-07-15T13:03:00.000Z,1009.226
2018-07-15T13:12:59.000Z,1009.023
2018-07-15T13:22:59.000Z,1008.833
2018-07-15T13:32:59.000Z,1008.691
2018-07-15T13:42:59.000Z,1008.661
2018-07-15T13:52:59.000Z,1008.601
2018-07-15T14:02:59.000Z,1008.583
2018-07-15T14:12:59.000Z,1008.474
2018-07-15T14:23:00.000Z,1008.39
2018-07-15T14:33:00.000Z,1008.292
2018-07-15T14:43:00.000Z,1008.28
2018-07-15T14:53:00.000Z,1008.171
2018-07-15T15:03:00.000Z,1008.068
2018-07-15T15:13:00.000Z,1008.154
2018-07-15T15:23:00.000Z,1008.004
2018-07-15T15:33:00.000Z,1008.025
2018-07-15T15:43:00.000Z,1008.014
2018-07-15T15:53:00.000Z,1007.869
2018-07-15T16:03:00.000Z,1007.794
2018-07-15T16:13:00.000Z,1007.785
2018-07-15T16:23:00.000Z,1007.762
2018-07-15T16:33:00.000Z,1007.717
2018-07-15T16:43:00.000Z,1007.649
2018-07-15T16:53:00.000Z,1007.597
2018-07-15T17:03:00.000Z,1007.607
2018-07-15T17:13:00.000Z,1007.591
2018-07-15T17:23:00.000Z,1007.615
2018-07-15T17:33:00.000Z,1007.522
2018-07-15T17:43:00.000Z,1007.579
2018-07-15T17:53:00.000Z,1007.643
2018-07-15T18:03:00.000Z,1007.568
2018-07-15T18:23:00.000Z,1007.567
2018-07-15T18:33:00.000Z,1007.503
2018-07-15T18:43:00.000Z,1007.548
2018-07-15T18:53:00.000Z,1007.528
2018-07-15T19:03:00.000Z,1007.558
2018-07-15T19:13:00.000Z,1007.696
2018-07-15T19:23:00.000Z,1007.852
2018-07-15T19:33:00.000Z,1007.909
2018-07-15T19:43:00.000Z,1007.955
2018-07-15T19:53:00.000Z,1008.033
2018-07-15T20:03:00.000Z,1008.082
2018-07-15T20:13:01.000Z,1008.141
2018-07-15T20:23:00.000Z,1008.126
2018-07-15T20:33:00.000Z,1008.162
2018-07-15T20:43:00.000Z,1008.172
2018-07-15T20:53:01.000Z,1008.179
2018-07-15T21:03:01.000Z,1008.178
2018-07-15T21:13:00.000Z,1008.189
2018-07-15T21:23:00.000Z,1008.31
2018-07-15T21:33:00.000Z,1008.351
2018-07-15T21:43:00.000Z,1008.366
2018-07-15T21:53:00.000Z,1008.359
2018-07-15T22:03:04.000Z,1008.387
2018-07-15T22:13:00.000Z,1008.407
2018-07-15T22:23:00.000Z,1008.37
2018-07-15T22:33:01.000Z,1008.47
2018-07-15T22:43:01.000Z,1008.397
2018-07-15T22:53:01.000Z,1008.342
2018-07-15T23:03:01.000Z,1008.322
2018-07-15T23:13:01.000Z,1008.296
2018-07-15T23:23:01.000Z,1008.304
2018-07-15T23:33:01.000Z,1008.293
2018-07-15T23:43:01.000Z,1008.311
2018-07-15T23:53:01.000Z,1008.297
